Time;durP1;ratioP1;P1;durP2;ratioP2;P2;SDS_P1;SDS_P2;PMS_P1;PMS_P2;Temp;Humidity;BMP_temperature;BMP_pressure;BME280_temperature;BME280_humidity;BME280_pressure;Samples;Min_cycle;Max_cycle;Signal;HPM_P1;HPM_P2
2022/12/24 00:00:47;;;;;;;117.50;69.10;;;12.90;99.90;;;;;;4593350;19;20066;-29
2022/12/24 00:02:25;;;;;;;148.47;91.07;;;12.90;99.90;;;;;;4593175;19;20013;-30
2022/12/24 00:03:56;;;;;;;142.27;87.30;;;12.90;99.90;;;;;;4591649;19;20082;-29
2022/12/24 00:05:27;;;;;;;127.88;78.80;;;12.90;99.90;;;;;;4591518;19;20456;-29
2022/12/24 00:07:01;;;;;;;142.38;89.40;;;12.90;99.90;;;;;;4591392;19;20002;-29
2022/12/24 00:08:41;;;;;;;134.70;82.83;;;12.90;99.90;;;;;;4591619;19;20495;-29
2022/12/24 00:10:16;;;;;;;120.63;72.47;;;12.90;99.90;;;;;;4592396;19;20021;-29
2022/12/24 00:11:48;;;;;;;94.63;58.63;;;12.90;99.90;;;;;;4592320;19;20459;-30
2022/12/24 00:13:28;;;;;;;116.97;70.90;;;12.90;99.90;;;;;;4591728;19;20033;-29
2022/12/24 00:15:08;;;;;;;142.67;87.40;;;12.90;99.90;;;;;;4592818;19;20015;-32
2022/12/24 00:16:39;;;;;;;130.50;81.23;;;12.90;99.90;;;;;;4592249;19;20018;-29
2022/12/24 00:18:11;;;;;;;;;;;12.90;99.90;;;;;;4593228;19;20014;-30
2022/12/24 00:19:42;;;;;;;86.37;55.20;;;12.90;99.90;;;;;;4592669;19;20336;-30
2022/12/24 00:21:14;;;;;;;86.05;59.35;;;12.90;99.90;;;;;;4593076;19;20002;-30
2022/12/24 00:22:45;;;;;;;84.77;58.90;;;12.90;99.90;;;;;;4592385;19;20015;-30
2022/12/24 00:24:16;;;;;;;76.13;55.50;;;12.90;99.90;;;;;;4592393;19;20162;-30
2022/12/24 00:25:47;;;;;;;64.15;44.85;;;12.90;99.90;;;;;;4592545;19;20352;-30
2022/12/24 00:27:19;;;;;;;61.60;41.45;;;12.90;99.90;;;;;;4592434;19;20010;-30
2022/12/24 00:28:50;;;;;;;72.47;48.35;;;12.90;99.90;;;;;;4592186;19;20007;-31
2022/12/24 00:30:21;;;;;;;69.10;47.38;;;12.90;99.90;;;;;;4592679;19;20058;-30
2022/12/24 00:31:52;;;;;;;64.65;44.40;;;12.90;99.90;;;;;;4592918;19;20033;-30
2022/12/24 00:33:23;;;;;;;69.53;46.67;;;12.90;99.90;;;;;;4592140;19;20355;-29
2022/12/24 00:34:54;;;;;;;74.15;48.47;;;12.80;99.90;;;;;;4592237;19;20575;-30
2022/12/24 00:36:26;;;;;;;74.35;48.70;;;12.80;99.90;;;;;;4592429;19;20006;-30
2022/12/24 00:37:57;;;;;;;67.70;46.95;;;12.80;99.90;;;;;;4592764;19;20074;-31
2022/12/24 00:39:28;;;;;;;66.88;44.08;;;12.90;99.90;;;;;;4592046;19;20038;-28
2022/12/24 00:41:00;;;;;;;64.13;43.75;;;12.80;99.90;;;;;;4592368;19;20015;-30
2022/12/24 00:42:31;;;;;;;61.17;43.67;;;12.80;99.90;;;;;;4592371;19;20481;-30
2022/12/24 00:44:09;;;;;;;60.25;42.58;;;12.80;99.90;;;;;;4592031;19;20096;-31
2022/12/24 00:45:40;;;;;;;63.37;42.97;;;12.80;99.90;;;;;;4591796;19;20029;-30
2022/12/24 00:47:12;;;;;;;63.75;43.28;;;12.80;99.90;;;;;;4592263;19;20011;-29
2022/12/24 00:48:43;;;;;;;60.53;43.07;;;12.80;99.90;;;;;;4592028;19;20022;-30
2022/12/24 00:50:15;;;;;;;60.97;44.28;;;12.80;99.90;;;;;;4592876;19;20460;-28
2022/12/24 00:51:46;;;;;;;59.25;42.90;;;12.80;99.90;;;;;;4591924;19;20029;-31
2022/12/24 00:53:17;;;;;;;58.70;42.38;;;12.80;99.90;;;;;;4591968;19;20479;-31
2022/12/24 00:54:49;;;;;;;60.20;42.83;;;12.80;99.90;;;;;;4591417;19;20014;-31
2022/12/24 00:56:20;;;;;;;63.63;41.75;;;12.80;99.90;;;;;;4591156;19;20483;-31
2022/12/24 00:57:51;;;;;;;58.50;40.67;;;12.80;99.90;;;;;;4592045;19;20460;-30
2022/12/24 00:59:22;;;;;;;56.85;41.63;;;12.80;99.90;;;;;;4592145;19;20066;-29
2022/12/24 01:00:53;;;;;;;59.88;41.22;;;12.80;99.90;;;;;;4591744;19;20067;-29
2022/12/24 01:02:24;;;;;;;61.00;43.22;;;12.80;99.90;;;;;;4591496;19;20074;-29
2022/12/24 01:05:09;;;;;;;64.40;44.22;;;12.80;99.90;;;;;;4591613;19;20014;-30
2022/12/24 01:05:47;;;;;;;66.13;43.13;;;12.80;99.90;;;;;;4590487;19;20014;-30
2022/12/24 01:07:18;;;;;;;60.20;43.28;;;12.80;99.90;;;;;;4591558;19;20338;-31
2022/12/24 01:08:50;;;;;;;63.45;41.25;;;12.80;99.90;;;;;;4591267;19;20468;-31
2022/12/24 01:10:21;;;;;;;64.72;42.45;;;12.80;99.90;;;;;;4590104;19;20014;-30
2022/12/24 01:11:52;;;;;;;67.38;43.05;;;12.80;99.90;;;;;;4591072;19;20022;-31
2022/12/24 01:13:24;;;;;;;68.57;44.88;;;12.80;99.90;;;;;;4592086;19;20086;-29
2022/12/24 01:14:55;;;;;;;64.53;41.80;;;12.80;99.90;;;;;;4590023;19;20021;-30
2022/12/24 01:16:26;;;;;;;63.38;42.78;;;12.80;99.90;;;;;;4590908;19;20014;-30
2022/12/24 01:17:57;;;;;;;63.97;39.92;;;12.80;99.90;;;;;;4591040;19;20070;-28
2022/12/24 01:19:28;;;;;;;59.80;39.55;;;12.80;99.90;;;;;;4591904;19;20066;-31
2022/12/24 01:21:01;;;;;;;62.95;39.97;;;12.80;99.90;;;;;;4590085;19;20034;-29
2022/12/24 01:22:32;;;;;;;65.13;41.17;;;12.80;99.90;;;;;;4590937;19;20488;-31
2022/12/24 01:24:03;;;;;;;58.03;40.50;;;12.80;99.90;;;;;;4591485;19;20002;-29
2022/12/24 01:25:37;;;;;;;63.58;42.35;;;12.80;99.90;;;;;;4591040;19;20010;-31
2022/12/24 01:27:09;;;;;;;63.80;41.00;;;12.80;99.90;;;;;;4590961;19;20348;-28
2022/12/24 01:28:40;;;;;;;62.95;40.53;;;12.80;99.90;;;;;;4590157;19;20027;-29
2022/12/24 01:30:12;;;;;;;59.70;40.33;;;12.80;99.90;;;;;;4589657;19;20361;-30
2022/12/24 01:31:44;;;;;;;59.40;40.00;;;12.80;99.90;;;;;;4589659;19;20033;-30
2022/12/24 01:33:15;;;;;;;63.17;40.50;;;12.80;99.90;;;;;;4590887;19;20456;-32
2022/12/24 01:34:46;;;;;;;63.20;39.47;;;12.80;99.90;;;;;;4591441;19;20027;-29
2022/12/24 01:36:17;;;;;;;57.47;39.90;;;12.80;99.90;;;;;;4591047;19;20013;-29
2022/12/24 01:37:49;;;;;;;59.95;39.75;;;12.80;99.90;;;;;;4590863;19;20026;-29
2022/12/24 01:39:20;;;;;;;63.20;39.97;;;12.80;99.90;;;;;;4590915;19;20019;-30
2022/12/24 01:44:34;;;;;;;;;;;12.80;99.90;;;;;;4591170;19;20028;-29
2022/12/24 01:46:19;;;;;;;54.60;36.42;;;12.80;99.90;;;;;;4590694;19;19919;-30
2022/12/24 01:47:50;;;;;;;58.20;37.80;;;12.80;99.90;;;;;;4589702;19;20018;-31
2022/12/24 01:49:21;;;;;;;57.20;37.92;;;12.80;99.90;;;;;;4590128;19;20017;-30
2022/12/24 01:50:58;;;;;;;59.78;37.97;;;12.80;99.90;;;;;;4589721;19;20014;-31
2022/12/24 01:52:33;;;;;;;56.80;37.80;;;12.70;99.90;;;;;;4589216;19;20348;-30
2022/12/24 01:54:06;;;;;;;58.30;37.03;;;12.80;99.90;;;;;;4590249;19;20014;-28
2022/12/24 01:55:38;;;;;;;58.00;37.93;;;12.70;99.90;;;;;;4589312;19;20418;-29
2022/12/24 01:57:13;;;;;;;55.25;36.75;;;12.80;99.90;;;;;;4589816;19;20019;-30
2022/12/24 01:58:47;;;;;;;52.73;38.43;;;12.70;99.90;;;;;;4589394;19;20086;-30
2022/12/24 02:00:18;;;;;;;54.77;36.53;;;12.70;99.90;;;;;;4589212;19;20419;-30
2022/12/24 02:01:49;;;;;;;55.17;37.85;;;12.80;99.90;;;;;;4589692;19;20031;-32
2022/12/24 02:03:20;;;;;;;54.72;37.30;;;12.70;99.90;;;;;;4590199;19;20018;-29
2022/12/24 02:05:08;;;;;;;53.63;36.88;;;12.70;99.90;;;;;;4589841;19;20077;-29
2022/12/24 02:06:40;;;;;;;53.10;37.87;;;12.70;99.90;;;;;;4589560;19;20382;-28
2022/12/24 02:08:11;;;;;;;58.83;38.40;;;12.70;99.90;;;;;;4588917;19;20027;-28
2022/12/24 02:09:42;;;;;;;56.95;38.05;;;12.70;99.90;;;;;;4588766;19;20006;-31
2022/12/24 02:11:15;;;;;;;54.30;38.58;;;12.80;99.90;;;;;;4589832;19;20062;-28
2022/12/24 02:12:46;;;;;;;54.17;36.70;;;12.70;99.90;;;;;;4589194;19;20014;-30
2022/12/24 02:14:18;;;;;;;55.97;37.55;;;12.70;99.90;;;;;;4589399;19;20005;-30
2022/12/24 02:15:53;;;;;;;53.58;36.70;;;12.70;99.90;;;;;;4590597;19;20003;-30
2022/12/24 02:17:26;;;;;;;54.03;35.63;;;12.70;99.90;;;;;;4588941;19;20357;-29
2022/12/24 02:19:23;;;;;;;52.70;35.17;;;12.70;99.90;;;;;;4589615;19;20014;-32
2022/12/24 02:21:19;;;;;;;51.13;36.33;;;12.70;99.90;;;;;;4589045;19;20014;-30
2022/12/24 02:22:53;;;;;;;50.40;34.60;;;12.80;99.90;;;;;;4589202;19;20011;-29
2022/12/24 02:24:30;;;;;;;48.13;32.03;;;12.70;99.90;;;;;;4590614;19;20003;-32
2022/12/24 02:26:13;;;;;;;52.57;37.23;;;12.70;99.90;;;;;;4589858;19;20014;-30
2022/12/24 02:28:05;;;;;;;53.60;34.30;;;12.70;99.90;;;;;;4589829;19;20468;-31
2022/12/24 02:29:51;;;;;;;50.23;34.17;;;12.70;99.90;;;;;;4589138;19;20025;-30
2022/12/24 02:31:43;;;;;;;47.20;32.97;;;12.70;99.90;;;;;;4589995;19;20510;-31
2022/12/24 02:33:41;;;;;;;48.60;33.50;;;12.70;99.90;;;;;;4589212;19;20087;-29
2022/12/24 02:35:38;;;;;;;50.20;35.17;;;12.70;99.90;;;;;;4590600;19;20025;-31
2022/12/24 02:37:17;;;;;;;46.63;31.77;;;12.80;99.90;;;;;;4589687;19;20418;-30
2022/12/24 02:38:51;;;;;;;47.37;32.53;;;12.80;99.90;;;;;;4587900;19;20010;-29
2022/12/24 02:40:27;;;;;;;47.40;32.57;;;12.80;99.90;;;;;;4587292;19;20019;-30
2022/12/24 02:42:07;;;;;;;50.30;32.73;;;12.80;99.90;;;;;;4587597;19;20030;-30
2022/12/24 02:43:40;;;;;;;43.17;30.53;;;12.80;99.90;;;;;;4587665;19;20011;-31
2022/12/24 02:45:14;;;;;;;42.70;29.97;;;12.80;99.90;;;;;;4587627;19;20100;-29
2022/12/24 02:46:45;;;;;;;41.63;28.63;;;12.80;99.90;;;;;;4587341;19;20460;-31
2022/12/24 02:48:16;;;;;;;41.70;29.70;;;12.80;99.90;;;;;;4587685;19;20019;-29
2022/12/24 02:49:48;;;;;;;40.33;28.75;;;12.80;99.90;;;;;;4586773;19;20006;-32
2022/12/24 02:51:23;;;;;;;38.78;29.30;;;12.80;99.90;;;;;;4588131;19;20018;-30
2022/12/24 02:52:54;;;;;;;37.53;26.47;;;12.80;99.90;;;;;;4587205;19;20599;-32
2022/12/24 02:54:27;;;;;;;36.40;27.70;;;12.80;99.90;;;;;;4587604;19;20054;-29
2022/12/24 02:56:12;;;;;;;40.20;28.03;;;12.80;99.90;;;;;;4589079;19;20015;-29
2022/12/24 02:58:04;;;;;;;35.10;25.60;;;12.80;99.90;;;;;;4589813;19;20006;-32
2022/12/24 02:59:41;;;;;;;36.47;26.33;;;12.80;99.90;;;;;;4589288;19;20021;-31
2022/12/24 03:01:27;;;;;;;34.13;25.80;;;12.80;99.90;;;;;;4588808;19;20021;-31
2022/12/24 03:03:24;;;;;;;33.10;25.23;;;12.80;99.90;;;;;;4589324;19;20029;-29
2022/12/24 03:05:01;;;;;;;36.63;26.37;;;12.80;99.90;;;;;;4588395;19;20043;-29
2022/12/24 03:06:42;;;;;;;33.77;23.97;;;12.80;99.90;;;;;;4588809;19;20014;-30
2022/12/24 03:08:37;;;;;;;31.47;25.03;;;12.80;99.90;;;;;;4591889;19;20362;-29
2022/12/24 03:10:11;;;;;;;34.50;25.43;;;12.80;99.90;;;;;;4591052;19;20097;-29
2022/12/24 03:11:45;;;;;;;32.10;24.57;;;12.80;99.90;;;;;;4591628;19;20094;-29
2022/12/24 03:13:17;;;;;;;34.63;25.33;;;12.80;99.90;;;;;;4591787;19;20014;-29
2022/12/24 03:14:49;;;;;;;34.47;25.13;;;12.80;99.90;;;;;;4592313;19;20010;-29
2022/12/24 03:16:24;;;;;;;33.97;24.85;;;12.80;99.90;;;;;;4592497;19;20498;-28
2022/12/24 03:17:57;;;;;;;35.37;25.30;;;12.80;99.90;;;;;;4593362;19;20011;-29
2022/12/24 03:19:28;;;;;;;34.13;25.00;;;12.80;99.90;;;;;;4593918;19;20006;-30
2022/12/24 03:21:10;;;;;;;32.65;24.70;;;12.80;99.90;;;;;;4592556;19;20019;-29
2022/12/24 03:22:42;;;;;;;34.43;24.80;;;12.80;99.90;;;;;;4592533;19;20354;-30
2022/12/24 03:24:13;;;;;;;28.83;22.88;;;12.80;99.90;;;;;;4592189;19;20029;-28
2022/12/24 03:25:44;;;;;;;36.60;25.65;;;12.80;99.90;;;;;;4593432;19;20032;-30
2022/12/24 03:27:15;;;;;;;31.92;23.55;;;12.80;99.90;;;;;;4592503;19;20019;-29
2022/12/24 03:28:47;;;;;;;30.85;23.20;;;12.80;99.90;;;;;;4592855;19;20031;-30
2022/12/24 03:30:19;;;;;;;30.98;23.23;;;12.80;99.90;;;;;;4590642;19;20018;-31
2022/12/24 03:31:51;;;;;;;;;;;12.80;99.90;;;;;;4592673;19;20083;-30
2022/12/24 03:33:22;;;;;;;29.45;20.80;;;12.80;99.90;;;;;;4591542;19;19946;-34
2022/12/24 03:34:53;;;;;;;29.25;20.95;;;12.80;99.90;;;;;;4592131;19;20010;-28
2022/12/24 03:36:24;;;;;;;27.83;21.35;;;12.80;99.90;;;;;;4594109;19;20510;-31
2022/12/24 03:37:56;;;;;;;31.67;21.25;;;12.80;99.90;;;;;;4593381;19;20014;-29
2022/12/24 03:39:27;;;;;;;28.67;21.00;;;12.80;99.90;;;;;;4593914;19;20030;-33
2022/12/24 03:40:58;;;;;;;27.45;19.98;;;12.80;99.90;;;;;;4592732;19;20468;-29
2022/12/24 03:42:30;;;;;;;26.15;19.42;;;12.80;99.90;;;;;;4592263;19;20007;-30
2022/12/24 03:44:01;;;;;;;29.52;19.80;;;12.90;99.90;;;;;;4593236;19;20014;-31
2022/12/24 03:45:32;;;;;;;27.60;19.70;;;12.90;99.90;;;;;;4593539;19;20476;-32
2022/12/24 03:47:03;;;;;;;25.23;19.20;;;12.90;99.90;;;;;;4593077;19;20017;-32
2022/12/24 03:48:35;;;;;;;23.67;17.02;;;12.90;99.90;;;;;;4593403;19;20010;-30
2022/12/24 03:50:06;;;;;;;24.05;17.10;;;12.90;99.90;;;;;;4590974;19;20011;-33
2022/12/24 03:51:38;;;;;;;21.87;16.47;;;12.90;99.90;;;;;;4593415;19;20023;-30
2022/12/24 03:53:09;;;;;;;23.45;17.95;;;12.90;99.90;;;;;;4592614;19;20476;-30
2022/12/24 03:54:40;;;;;;;22.50;16.75;;;12.90;99.90;;;;;;4590472;19;20011;-31
2022/12/24 03:56:12;;;;;;;21.47;15.23;;;13.00;99.90;;;;;;4592365;19;20070;-30
2022/12/24 03:57:43;;;;;;;22.05;16.33;;;12.90;99.90;;;;;;4593336;19;20368;-29
2022/12/24 03:59:14;;;;;;;22.38;16.42;;;12.90;99.90;;;;;;4593079;19;20401;-30
2022/12/24 04:00:46;;;;;;;23.35;16.33;;;12.90;99.90;;;;;;4590569;19;20118;-30
2022/12/24 04:02:17;;;;;;;21.95;16.13;;;12.90;99.90;;;;;;4590667;19;20015;-30
2022/12/24 04:03:48;;;;;;;23.20;17.45;;;12.90;99.90;;;;;;4591931;19;20374;-29
2022/12/24 04:05:20;;;;;;;21.90;16.05;;;12.90;99.90;;;;;;4591975;19;20014;-32
2022/12/24 04:06:51;;;;;;;20.27;15.35;;;12.90;99.90;;;;;;4593177;19;20006;-29
2022/12/24 04:08:22;;;;;;;22.48;16.48;;;12.90;99.90;;;;;;4591619;19;20019;-30
2022/12/24 04:09:54;;;;;;;21.17;15.18;;;12.90;99.90;;;;;;4591502;19;20102;-30
2022/12/24 04:11:25;;;;;;;19.88;15.55;;;12.90;99.90;;;;;;4594021;19;20019;-32
2022/12/24 04:12:56;;;;;;;21.00;15.80;;;12.90;99.90;;;;;;4593632;19;20014;-29
2022/12/24 04:14:27;;;;;;;22.10;17.80;;;12.90;99.90;;;;;;4592494;19;20016;-31
2022/12/24 04:16:07;;;;;;;20.42;15.38;;;12.90;99.90;;;;;;4592711;19;20070;-29
2022/12/24 04:17:38;;;;;;;22.73;17.07;;;12.90;99.90;;;;;;4591635;19;20334;-29
2022/12/24 04:19:09;;;;;;;20.55;15.98;;;12.90;99.90;;;;;;4593087;19;20021;-33
2022/12/24 04:20:40;;;;;;;19.38;14.73;;;12.90;99.90;;;;;;4591303;19;20442;-28
2022/12/24 04:22:11;;;;;;;22.58;16.20;;;12.90;99.90;;;;;;4592122;19;20015;-32
2022/12/24 04:23:43;;;;;;;20.27;15.23;;;12.90;99.90;;;;;;4592865;19;20014;-28
2022/12/24 04:25:14;;;;;;;19.63;15.25;;;12.90;99.90;;;;;;4593397;19;20003;-30
2022/12/24 04:26:45;;;;;;;18.55;14.93;;;12.90;99.90;;;;;;4592623;19;20038;-34
2022/12/24 04:28:17;;;;;;;19.95;14.25;;;12.90;99.90;;;;;;4589948;19;20014;-29
2022/12/24 04:29:49;;;;;;;20.13;15.18;;;12.90;99.90;;;;;;4590995;19;20011;-31
2022/12/24 04:31:20;;;;;;;17.77;14.30;;;12.90;99.90;;;;;;4593037;19;20013;-29
2022/12/24 04:32:51;;;;;;;20.52;15.40;;;12.90;99.90;;;;;;4592022;19;20025;-31
2022/12/24 04:34:22;;;;;;;21.58;16.05;;;12.90;99.90;;;;;;4592512;19;20030;-29
2022/12/24 04:35:53;;;;;;;18.35;14.07;;;12.90;99.90;;;;;;4592790;19;19998;-29
2022/12/24 04:37:25;;;;;;;19.13;14.88;;;12.90;99.90;;;;;;4592964;19;20536;-28
2022/12/24 04:38:56;;;;;;;17.90;14.38;;;12.90;99.90;;;;;;4592077;19;20080;-29
2022/12/24 04:40:27;;;;;;;19.77;15.15;;;12.90;99.90;;;;;;4592025;19;20061;-29
2022/12/24 04:41:59;;;;;;;21.27;16.00;;;12.90;99.90;;;;;;4592800;19;20095;-28
2022/12/24 04:43:30;;;;;;;20.17;15.85;;;12.90;99.90;;;;;;4592332;19;20361;-32
2022/12/24 04:45:01;;;;;;;19.10;15.18;;;12.90;99.90;;;;;;4592138;19;20011;-30
2022/12/24 04:46:34;;;;;;;19.70;14.00;;;12.90;99.90;;;;;;4592513;19;20006;-29
2022/12/24 04:48:05;;;;;;;20.23;15.53;;;12.90;99.90;;;;;;4592646;19;20007;-31
2022/12/24 04:49:36;;;;;;;22.75;16.02;;;12.90;99.90;;;;;;4590013;19;20074;-30
2022/12/24 04:51:08;;;;;;;19.85;14.35;;;12.90;99.90;;;;;;4591801;19;20011;-29
2022/12/24 04:52:39;;;;;;;20.48;15.07;;;12.90;99.90;;;;;;4593808;19;20010;-29
2022/12/24 04:54:10;;;;;;;22.35;15.13;;;12.90;99.90;;;;;;4592815;19;20016;-28
2022/12/24 04:55:45;;;;;;;22.05;15.70;;;12.90;99.90;;;;;;4591652;19;20171;-29
2022/12/24 04:57:16;;;;;;;21.43;16.03;;;12.90;99.90;;;;;;4591587;19;20468;-31
2022/12/24 04:58:47;;;;;;;19.77;14.90;;;12.90;99.90;;;;;;4592063;19;20336;-31
2022/12/24 05:00:19;;;;;;;18.35;14.60;;;12.90;99.90;;;;;;4592442;19;20520;-31
2022/12/24 05:01:50;;;;;;;21.98;14.98;;;12.90;99.90;;;;;;4591541;19;20014;-29
2022/12/24 05:03:21;;;;;;;21.52;16.55;;;12.90;99.90;;;;;;4591968;19;20015;-30
2022/12/24 05:04:52;;;;;;;20.42;15.38;;;12.90;99.90;;;;;;4591421;19;20021;-30
2022/12/24 05:06:25;;;;;;;22.10;16.83;;;12.90;99.90;;;;;;4591623;19;20006;-28
2022/12/24 05:07:56;;;;;;;22.40;16.63;;;12.90;99.90;;;;;;4590459;19;20511;-29
2022/12/24 05:09:28;;;;;;;23.00;17.20;;;12.90;99.90;;;;;;4591486;19;20166;-29
2022/12/24 05:11:00;;;;;;;22.88;15.50;;;12.90;99.90;;;;;;4592161;19;20011;-33
2022/12/24 05:12:31;;;;;;;22.15;16.60;;;12.90;99.90;;;;;;4590327;19;20493;-32
2022/12/24 05:14:02;;;;;;;;;;;12.90;99.90;;;;;;4591993;19;20028;-28
2022/12/24 05:15:34;;;;;;;24.07;17.80;;;12.90;99.90;;;;;;4591676;19;19911;-27
2022/12/24 05:17:05;;;;;;;21.38;16.27;;;12.90;99.90;;;;;;4592142;19;20512;-31
2022/12/24 05:18:38;;;;;;;20.98;15.10;;;12.90;99.90;;;;;;4590451;19;20014;-30
2022/12/24 05:20:09;;;;;;;18.73;14.70;;;12.90;99.90;;;;;;4590124;19;20031;-30
2022/12/24 05:21:40;;;;;;;21.83;16.55;;;12.90;99.90;;;;;;4591334;19;20569;-31
2022/12/24 05:26:59;;;;;;;21.07;16.03;;;12.80;99.90;;;;;;4590056;19;20505;-30
2022/12/24 05:28:30;;;;;;;19.10;16.00;;;12.90;99.90;;;;;;4591148;19;20010;-31
2022/12/24 05:30:01;;;;;;;21.50;16.33;;;12.90;99.90;;;;;;4588104;19;20063;-30
2022/12/24 05:31:33;;;;;;;19.77;15.10;;;12.80;99.90;;;;;;4591776;19;20007;-29
2022/12/24 05:33:04;;;;;;;18.92;15.48;;;12.90;99.90;;;;;;4590016;19;20014;-33
2022/12/24 05:34:35;;;;;;;21.02;15.75;;;12.90;99.90;;;;;;4590721;19;20472;-30
2022/12/24 05:36:07;;;;;;;20.73;16.10;;;12.90;99.90;;;;;;4589965;19;20011;-31
2022/12/24 05:37:38;;;;;;;22.17;16.45;;;12.80;99.90;;;;;;4590978;19;20037;-31
2022/12/24 05:39:14;;;;;;;19.50;16.17;;;12.80;99.90;;;;;;4590684;19;20499;-31
2022/12/24 05:40:46;;;;;;;20.57;15.20;;;12.80;99.90;;;;;;4589774;19;20344;-29
2022/12/24 05:42:17;;;;;;;18.33;14.93;;;12.80;99.90;;;;;;4589860;19;20006;-31
2022/12/24 05:43:48;;;;;;;20.77;15.52;;;12.80;99.90;;;;;;4590319;19;20030;-31
2022/12/24 05:45:19;;;;;;;23.00;16.08;;;12.80;99.90;;;;;;4590957;19;20480;-30
2022/12/24 05:46:50;;;;;;;20.67;14.50;;;12.80;99.90;;;;;;4590037;19;20011;-31
2022/12/24 05:48:22;;;;;;;21.60;14.77;;;12.80;99.90;;;;;;4589815;19;20058;-30
2022/12/24 05:49:53;;;;;;;21.73;16.10;;;12.90;99.90;;;;;;4589469;19;20042;-29
2022/12/24 05:51:24;;;;;;;22.42;16.00;;;12.80;99.90;;;;;;4589838;19;20010;-29
2022/12/24 05:52:55;;;;;;;19.05;14.27;;;12.80;99.90;;;;;;4590913;19;19999;-31
2022/12/24 05:54:26;;;;;;;19.73;14.68;;;12.80;99.90;;;;;;4591406;19;20020;-29
2022/12/24 05:56:05;;;;;;;21.58;15.45;;;12.80;99.90;;;;;;4590463;19;20519;-29
2022/12/24 05:57:38;;;;;;;19.73;15.50;;;12.80;99.90;;;;;;4591074;19;20037;-30
2022/12/24 05:59:09;;;;;;;21.37;15.80;;;12.80;99.90;;;;;;4590697;19;20033;-31
2022/12/24 06:00:41;;;;;;;20.10;15.77;;;12.80;99.90;;;;;;4590808;19;20025;-30
2022/12/24 06:02:12;;;;;;;19.42;15.00;;;12.80;99.90;;;;;;4589426;19;20027;-30
2022/12/24 06:03:43;;;;;;;21.17;15.23;;;12.80;99.90;;;;;;4590317;19;20086;-31
2022/12/24 06:05:14;;;;;;;20.50;15.85;;;12.80;99.90;;;;;;4590203;19;20464;-30
2022/12/24 06:06:46;;;;;;;21.42;15.25;;;12.80;99.90;;;;;;4590606;19;20078;-30
2022/12/24 06:08:17;;;;;;;21.73;15.98;;;12.80;99.90;;;;;;4589984;19;20051;-29
2022/12/24 06:09:48;;;;;;;20.08;15.35;;;12.80;99.90;;;;;;4589714;19;20033;-31
2022/12/24 06:11:21;;;;;;;20.10;14.63;;;12.80;99.90;;;;;;4590961;19;20548;-31
2022/12/24 06:12:52;;;;;;;19.10;14.73;;;12.80;99.90;;;;;;4590108;19;20010;-29
2022/12/24 06:14:23;;;;;;;20.20;15.40;;;12.80;99.90;;;;;;4588944;19;20021;-29
2022/12/24 06:15:56;;;;;;;21.33;15.93;;;12.80;99.90;;;;;;4589708;19;20424;-29
2022/12/24 06:17:27;;;;;;;21.03;15.70;;;12.80;99.90;;;;;;4591066;19;20062;-31
2022/12/24 06:18:58;;;;;;;23.73;17.38;;;12.80;99.90;;;;;;4589906;19;20018;-29
2022/12/24 06:20:29;;;;;;;29.17;19.60;;;12.80;99.90;;;;;;4590421;19;20037;-29
2022/12/24 06:22:00;;;;;;;24.48;18.38;;;12.80;99.90;;;;;;4590715;19;20018;-28
2022/12/24 06:23:33;;;;;;;21.73;17.05;;;12.80;99.90;;;;;;4590166;19;20006;-28
2022/12/24 06:25:05;;;;;;;20.70;15.90;;;12.80;99.90;;;;;;4589998;19;20082;-31
2022/12/24 06:26:36;;;;;;;;;;;12.80;99.90;;;;;;4591943;19;20341;-28
2022/12/24 06:28:07;;;;;;;22.07;16.30;;;12.80;99.90;;;;;;4590039;19;20072;-28
2022/12/24 06:29:39;;;;;;;20.35;15.27;;;12.80;99.90;;;;;;4589342;19;20077;-30
2022/12/24 06:31:11;;;;;;;20.83;16.40;;;12.80;99.90;;;;;;4590052;19;20018;-28
2022/12/24 06:32:42;;;;;;;21.37;17.20;;;12.40;99.90;;;;;;4590492;19;20543;-28
2022/12/24 06:34:14;;;;;;;24.60;18.63;;;10.80;99.90;;;;;;4589872;19;20421;-29
2022/12/24 06:35:45;;;;;;;23.75;19.27;;;10.00;99.90;;;;;;4591285;19;20015;-29
2022/12/24 06:37:17;;;;;;;25.65;19.08;;;9.50;99.90;;;;;;4590158;19;20033;-29
2022/12/24 06:38:49;;;;;;;24.07;18.37;;;9.30;99.90;;;;;;4589055;19;20003;-28
2022/12/24 06:40:20;;;;;;;25.83;18.90;;;9.20;99.90;;;;;;4589616;19;20452;-29
2022/12/24 06:41:51;;;;;;;24.23;18.55;;;9.10;99.90;;;;;;4593416;19;20487;-31
2022/12/24 06:43:22;;;;;;;23.05;17.25;;;9.10;99.90;;;;;;4595045;19;20037;-31
2022/12/24 06:44:53;;;;;;;25.30;17.73;;;9.00;99.90;;;;;;4594707;19;20500;-28
2022/12/24 06:46:24;;;;;;;24.00;17.83;;;9.00;99.90;;;;;;4594366;19;20476;-29
2022/12/24 06:47:56;;;;;;;21.88;15.95;;;9.00;99.90;;;;;;4594531;19;20037;-28
2022/12/24 06:49:27;;;;;;;20.75;16.02;;;8.90;99.90;;;;;;4594671;19;20014;-30
2022/12/24 06:51:01;;;;;;;21.85;16.17;;;8.90;99.90;;;;;;4596160;19;20452;-28
2022/12/24 06:52:32;;;;;;;21.77;16.73;;;8.80;99.90;;;;;;4596462;19;20025;-28
2022/12/24 06:54:04;;;;;;;20.88;15.40;;;8.80;99.90;;;;;;4596678;19;20510;-29
2022/12/24 06:55:35;;;;;;;20.60;15.93;;;8.80;99.90;;;;;;4595041;19;20082;-30
2022/12/24 06:57:08;;;;;;;21.23;15.13;;;8.80;99.90;;;;;;4595889;19;20018;-30
2022/12/24 06:58:40;;;;;;;21.03;16.43;;;8.80;99.90;;;;;;4593246;19;20015;-28
2022/12/24 07:00:11;;;;;;;20.25;15.93;;;8.80;99.90;;;;;;4595733;19;20488;-29
2022/12/24 07:01:43;;;;;;;22.17;15.93;;;8.80;99.90;;;;;;4595902;19;20027;-28
2022/12/24 07:03:14;;;;;;;19.10;13.73;;;8.80;99.90;;;;;;4594218;19;20429;-29
2022/12/24 07:04:45;;;;;;;18.75;14.50;;;8.70;99.90;;;;;;4593724;19;20014;-28
2022/12/24 07:06:24;;;;;;;19.63;17.23;;;8.70;99.90;;;;;;4593779;19;20041;-29
2022/12/24 07:07:55;;;;;;;16.47;12.90;;;8.70;99.90;;;;;;4593522;19;20063;-29
2022/12/24 07:09:26;;;;;;;17.25;13.23;;;8.70;99.90;;;;;;4593653;19;20460;-31
2022/12/24 07:10:58;;;;;;;17.60;14.07;;;8.70;99.90;;;;;;4594869;19;20016;-30
2022/12/24 07:12:30;;;;;;;;;;;8.70;99.90;;;;;;4594888;19;20011;-31
2022/12/24 07:14:01;;;;;;;15.80;11.80;;;8.60;99.90;;;;;;4593895;19;19922;-32
2022/12/24 07:15:32;;;;;;;17.10;11.85;;;8.60;99.90;;;;;;4593749;19;20015;-30
2022/12/24 07:17:03;;;;;;;14.93;11.75;;;8.60;99.90;;;;;;4594080;19;20014;-32
2022/12/24 07:18:34;;;;;;;17.92;12.60;;;8.60;99.90;;;;;;4592648;19;20018;-32
2022/12/24 07:20:07;;;;;;;15.55;12.30;;;8.60;99.90;;;;;;4592949;19;20022;-29
2022/12/24 07:21:38;;;;;;;15.07;11.97;;;8.60;99.90;;;;;;4591212;19;20011;-29
2022/12/24 07:23:09;;;;;;;14.90;10.90;;;8.60;99.90;;;;;;4591614;19;20441;-30
2022/12/24 07:24:40;;;;;;;16.05;11.68;;;8.60;99.90;;;;;;4591640;19;20586;-28
2022/12/24 07:26:11;;;;;;;15.48;12.40;;;8.50;99.90;;;;;;4591729;19;20036;-31
2022/12/24 07:27:42;;;;;;;15.60;11.65;;;8.50;99.90;;;;;;4591343;19;20483;-30
2022/12/24 07:29:14;;;;;;;15.88;11.70;;;8.50;99.90;;;;;;4590762;19;20070;-29
2022/12/24 07:30:45;;;;;;;14.63;10.43;;;8.50;99.90;;;;;;4591278;19;20025;-31
2022/12/24 07:32:16;;;;;;;14.40;10.65;;;8.50;99.90;;;;;;4591402;19;20019;-28
2022/12/24 07:33:48;;;;;;;14.10;10.82;;;8.50;99.90;;;;;;4590821;19;20368;-30
2022/12/24 07:35:19;;;;;;;15.13;10.90;;;8.40;99.90;;;;;;4591044;19;20354;-28
2022/12/24 07:36:50;;;;;;;14.95;11.07;;;8.50;99.90;;;;;;4591876;19;20011;-30
2022/12/24 07:38:21;;;;;;;14.82;10.98;;;8.50;99.90;;;;;;4590754;19;20075;-30
2022/12/24 07:39:52;;;;;;;13.93;10.77;;;8.50;99.90;;;;;;4592841;19;20053;-31
2022/12/24 07:41:23;;;;;;;16.40;11.50;;;8.40;99.90;;;;;;4591372;19;20002;-28
2022/12/24 07:42:55;;;;;;;15.27;10.77;;;8.40;99.90;;;;;;4591290;19;20010;-30
2022/12/24 07:44:26;;;;;;;14.30;11.35;;;8.40;99.90;;;;;;4590826;19;20074;-29
2022/12/24 07:45:57;;;;;;;15.30;11.32;;;8.40;99.90;;;;;;4591318;19;20011;-28
2022/12/24 07:47:28;;;;;;;;;;;8.40;99.90;;;;;;4591775;19;20114;-30
2022/12/24 07:48:59;;;;;;;13.53;11.00;;;8.40;99.90;;;;;;4592275;19;19926;-29
2022/12/24 07:50:31;;;;;;;14.23;10.95;;;8.40;99.90;;;;;;4589231;19;20082;-30
2022/12/24 07:52:03;;;;;;;14.13;11.05;;;8.40;99.90;;;;;;4590817;19;20409;-27
2022/12/24 07:53:34;;;;;;;14.80;10.65;;;8.40;99.90;;;;;;4589128;19;20538;-29
2022/12/24 07:55:05;;;;;;;14.45;10.70;;;8.40;99.90;;;;;;4588803;19;20026;-30
2022/12/24 07:56:36;;;;;;;13.57;10.60;;;8.40;99.90;;;;;;4591307;19;20106;-30
2022/12/24 07:58:07;;;;;;;14.23;10.63;;;8.40;99.90;;;;;;4592761;19;20490;-33
2022/12/24 07:59:38;;;;;;;12.57;9.10;;;8.40;99.90;;;;;;4594388;19;20018;-29
2022/12/24 08:01:10;;;;;;;14.80;11.60;;;8.40;99.90;;;;;;4591302;19;20038;-28